createdAt,value
2022-09-25T00:00:51.789Z,1000.07
2022-09-25T00:01:51.761Z,1000.14
2022-09-25T00:02:51.781Z,1000.10
2022-09-25T00:03:51.704Z,1000.05
2022-09-25T00:04:51.686Z,1000.08
2022-09-25T00:05:51.673Z,1000.07
2022-09-25T00:06:51.657Z,1000.05
2022-09-25T00:07:51.650Z,1000.04
2022-09-25T00:08:51.635Z,1000.10
2022-09-25T00:09:51.638Z,1000.05
2022-09-25T00:10:51.594Z,1000.07
2022-09-25T00:11:51.579Z,1000.10
2022-09-25T00:12:51.562Z,1000.05
2022-09-25T00:13:51.548Z,1000.07
2022-09-25T00:14:51.631Z,1000.08
2022-09-25T00:15:51.547Z,1000.09
2022-09-25T00:16:51.570Z,1000.07
2022-09-25T00:17:51.492Z,1000.10
2022-09-25T00:18:51.480Z,1000.02
2022-09-25T00:19:51.483Z,1000.07
2022-09-25T00:20:51.484Z,1000.11
2022-09-25T00:21:51.425Z,1000.06
2022-09-25T00:22:51.411Z,1000.08
2022-09-25T00:23:51.399Z,1000.05
2022-09-25T00:24:51.407Z,1000.07
2022-09-25T00:25:51.367Z,1000.06
2022-09-25T00:26:51.352Z,1000.07
2022-09-25T00:27:51.353Z,1000.01
2022-09-25T00:28:51.318Z,1000.04
2022-09-25T00:29:51.325Z,1000.01
2022-09-25T00:30:51.344Z,1000.02
2022-09-25T00:31:51.293Z,1000.08
2022-09-25T00:32:51.338Z,1000.05
2022-09-25T00:33:51.254Z,1000.03
2022-09-25T00:34:51.261Z,1000.01
2022-09-25T00:35:51.231Z,1000.05
2022-09-25T00:36:51.196Z,1000.04
2022-09-25T00:37:51.185Z,1000.08
2022-09-25T00:38:51.381Z,1000.06
2022-09-25T00:39:51.160Z,1000.05
2022-09-25T00:40:51.375Z,1000.07
2022-09-25T00:41:51.128Z,1000.07
2022-09-25T00:42:51.120Z,1000.03
2022-09-25T00:43:51.130Z,1000.13
2022-09-25T00:44:51.079Z,1000.12
2022-09-25T00:45:51.130Z,1000.08
2022-09-25T00:46:51.044Z,1000.06
2022-09-25T00:47:51.030Z,1000.04
2022-09-25T00:48:51.040Z,1000.09
2022-09-25T00:49:51.008Z,1000.07
2022-09-25T00:50:51.035Z,1000.08
2022-09-25T00:51:54.653Z,1000.09
2022-09-25T00:52:50.952Z,1000.09
2022-09-25T00:53:50.941Z,1000.06
2022-09-25T00:54:50.922Z,1000.07
2022-09-25T00:55:50.918Z,1000.11
2022-09-25T00:56:50.923Z,1000.09
2022-09-25T00:57:50.885Z,1000.07
2022-09-25T00:58:50.866Z,1000.09
2022-09-25T00:59:50.851Z,1000.11
2022-09-25T01:00:50.897Z,1000.08
2022-09-25T01:01:50.880Z,1000.10
2022-09-25T01:02:50.862Z,1000.11
2022-09-25T01:03:50.785Z,1000.08
2022-09-25T01:04:50.766Z,1000.15
2022-09-25T01:05:50.967Z,1000.12
2022-09-25T01:06:50.744Z,1000.14
2022-09-25T01:07:50.734Z,1000.08
2022-09-25T01:08:50.707Z,1000.11
2022-09-25T01:09:50.716Z,1000.12
2022-09-25T01:10:50.857Z,1000.14
2022-09-25T01:11:51.091Z,1000.11
2022-09-25T01:12:50.653Z,1000.08
2022-09-25T01:13:50.696Z,1000.16
2022-09-25T01:14:50.614Z,1000.15
2022-09-25T01:15:50.602Z,1000.17
2022-09-25T01:16:50.643Z,1000.16
2022-09-25T01:17:50.571Z,1000.19
2022-09-25T01:18:50.672Z,1000.18
2022-09-25T01:19:52.922Z,1000.16
2022-09-25T01:20:50.550Z,1000.17
2022-09-25T01:21:50.514Z,1000.18
2022-09-25T01:22:50.495Z,1000.17
2022-09-25T01:23:50.483Z,1000.20
2022-09-25T01:24:50.501Z,1000.20
2022-09-25T01:25:50.449Z,1000.19
2022-09-25T01:26:50.436Z,1000.21
2022-09-25T01:27:50.432Z,1000.20
2022-09-25T01:28:50.444Z,1000.20
2022-09-25T01:29:50.861Z,1000.25
2022-09-25T01:30:50.418Z,1000.25
2022-09-25T01:31:50.359Z,1000.24
2022-09-25T01:32:50.338Z,1000.19
2022-09-25T01:33:50.328Z,1000.18
2022-09-25T01:34:50.312Z,1000.17
2022-09-25T01:35:50.488Z,1000.12
2022-09-25T01:36:50.340Z,1000.18
2022-09-25T01:37:50.518Z,1000.14
2022-09-25T01:38:50.251Z,1000.15
2022-09-25T01:39:50.372Z,1000.15
2022-09-25T01:40:50.299Z,1000.12
2022-09-25T01:41:50.210Z,1000.14
2022-09-25T01:42:50.192Z,1000.18
2022-09-25T01:43:50.176Z,1000.21
2022-09-25T01:44:50.154Z,1000.20
2022-09-25T01:45:50.271Z,1000.24
2022-09-25T01:46:50.121Z,1000.27
2022-09-25T01:47:50.110Z,1000.23
2022-09-25T01:48:50.097Z,1000.21
2022-09-25T01:49:50.084Z,1000.21
2022-09-25T01:50:50.060Z,1000.19
2022-09-25T01:51:50.073Z,1000.22
2022-09-25T01:52:50.050Z,1000.17
2022-09-25T01:53:50.019Z,1000.19
